Time;durP1;ratioP1;P1;durP2;ratioP2;P2;SDS_P1;SDS_P2;PMS_P1;PMS_P2;Temp;Humidity;BMP_temperature;BMP_pressure;BME280_temperature;BME280_humidity;BME280_pressure;Samples;Min_cycle;Max_cycle;Signal;HPM_P1;HPM_P2
2022/08/23 00:01:22;;;;;;;18.58;13.43;;;;;;;24.64;68.17;98997.69;5062288;28;20479;-45
2022/08/23 00:03:49;;;;;;;14.93;12.02;;;;;;;24.18;69.04;98991.53;5049132;28;20473;-44
2022/08/23 00:06:15;;;;;;;14.13;12.15;;;;;;;24.11;69.68;98994.69;5049185;28;21010;-46
2022/08/23 00:08:42;;;;;;;15.50;12.27;;;;;;;24.17;69.93;98985.28;5048960;28;20431;-45
2022/08/23 00:11:31;;;;;;;13.50;11.88;;;;;;;24.07;69.11;98984.78;5048862;28;20095;-45
2022/08/23 00:14:01;;;;;;;14.82;11.75;;;;;;;24.28;68.72;98998.63;5049022;28;20106;-46
2022/08/23 00:16:27;;;;;;;15.27;12.05;;;;;;;24.09;69.85;98996.94;5048938;28;20061;-44
2022/08/23 00:18:53;;;;;;;13.70;11.25;;;;;;;23.81;70.78;98988.91;5048964;28;20050;-43
2022/08/23 00:21:19;;;;;;;13.02;10.82;;;;;;;23.99;70.35;98986.31;5048747;28;20595;-45
2022/08/23 00:23:44;;;;;;;14.88;10.10;;;;;;;24.17;69.43;98993.44;5048953;28;20107;-43
2022/08/23 00:26:10;;;;;;;14.15;10.75;;;;;;;24.53;67.35;98995.22;5048819;28;20096;-45
2022/08/23 00:28:35;;;;;;;12.73;10.23;;;;;;;24.25;68.57;98993.81;5048835;28;20021;-44
2022/08/23 00:31:01;;;;;;;15.10;10.57;;;;;;;24.03;69.47;98995.47;5048565;28;20195;-46
2022/08/23 00:33:27;;;;;;;15.20;10.40;;;;;;;23.95;70.00;98996.19;5048708;28;20024;-43
2022/08/23 00:35:52;;;;;;;13.90;9.98;;;;;;;23.95;69.47;98998.91;5047285;28;20396;-43
2022/08/23 00:38:18;;;;;;;12.52;9.55;;;;;;;24.09;68.95;99002.34;5048774;28;20036;-43
2022/08/23 00:40:47;;;;;;;12.35;9.57;;;;;;;24.33;67.72;98993.84;5048722;28;20075;-43
2022/08/23 00:49:22;;;;;;;13.10;9.55;;;;;;;23.96;69.43;99025.78;5048721;28;20178;-44
2022/08/23 00:51:51;;;;;;;13.07;9.52;;;;;;;24.05;69.06;99031.28;5051919;28;20017;-42
2022/08/23 00:54:18;;;;;;;13.88;9.77;;;;;;;24.48;67.49;99035.31;5052313;28;20104;-43
2022/08/23 00:56:44;;;;;;;13.43;9.30;;;;;;;24.13;68.17;99035.16;5063699;28;20016;-42
2022/08/23 00:59:10;;;;;;;13.75;9.38;;;;;;;23.76;69.97;99037.91;5071850;28;20158;-43
2022/08/23 01:01:35;;;;;;;11.13;9.27;;;;;;;23.94;69.03;99043.50;5061824;28;20104;-46
2022/08/23 01:04:01;;;;;;;11.15;8.43;;;;;;;23.85;69.34;99042.63;5051856;28;20461;-43
2022/08/23 01:06:33;;;;;;;9.75;8.80;;;;;;;23.90;68.56;99043.31;5052740;28;20025;-47
2022/08/23 01:09:04;;;;;;;12.50;9.00;;;;;;;23.70;69.75;99046.47;5052384;28;20394;-43
2022/08/23 01:11:39;;;;;;;11.73;9.60;;;;;;;23.71;70.20;99048.09;5052454;28;20032;-44
2022/08/23 01:14:16;;;;;;;15.30;9.85;;;;;;;23.74;70.03;99039.31;5052172;28;20025;-43
2022/08/23 01:16:48;;;;;;;13.48;9.75;;;;;;;23.96;69.70;99041.28;5052264;28;20053;-43
2022/08/23 01:19:24;;;;;;;14.45;9.57;;;;;;;24.15;68.86;99038.38;5052672;28;20103;-45
2022/08/23 01:22:13;;;;;;;11.75;9.43;;;;;;;24.42;67.55;99044.75;5052445;28;20041;-42
2022/08/23 01:24:39;;;;;;;11.82;9.43;;;;;;;23.97;69.45;99040.16;5047778;28;20469;-43
2022/08/23 01:27:05;;;;;;;10.85;9.40;;;;;;;23.81;70.66;99039.72;5052029;28;20029;-44
2022/08/23 01:29:31;;;;;;;11.88;9.05;;;;;;;23.93;70.45;99033.72;5052211;28;20021;-43
2022/08/23 01:31:57;;;;;;;11.32;9.30;;;;;;;24.03;69.96;99038.94;5052233;28;20020;-43
2022/08/23 01:34:27;;;;;;;11.68;9.13;;;;;;;24.42;68.01;99050.19;5051736;28;20074;-44
2022/08/23 01:36:54;;;;;;;14.30;9.98;;;;;;;23.87;70.38;99056.72;5052116;28;20100;-44
2022/08/23 01:39:19;;;;;;;14.20;9.50;;;;;;;23.63;71.78;99057.78;5052112;28;20373;-45
2022/08/23 01:41:45;;;;;;;14.02;9.63;;;;;;;23.62;71.87;99056.16;5052101;28;20025;-46
2022/08/23 01:44:10;;;;;;;12.23;9.52;;;;;;;23.66;70.96;99053.63;5052032;28;20029;-44
2022/08/23 01:46:36;;;;;;;13.23;9.48;;;;;;;23.74;70.57;99050.19;5051190;28;20017;-43
2022/08/23 01:49:03;;;;;;;12.40;9.70;;;;;;;23.62;71.25;99045.31;5051924;28;20423;-42
2022/08/23 01:51:29;;;;;;;13.15;9.68;;;;;;;23.50;72.10;99040.41;5051922;28;20029;-45
2022/08/23 01:53:54;;;;;;;16.08;10.20;;;;;;;23.60;71.94;99025.78;5051841;28;20024;-44
2022/08/23 01:56:20;;;;;;;15.55;10.10;;;;;;;23.49;72.68;99021.72;5059518;28;20020;-43
2022/08/23 01:58:47;;;;;;;12.52;9.27;;;;;;;23.72;71.38;99019.81;5071360;28;20098;-44
2022/08/23 02:01:13;;;;;;;12.48;10.40;;;;;;;24.04;69.87;99013.34;5064629;28;20033;-45
2022/08/23 02:03:39;;;;;;;11.07;9.80;;;;;;;23.54;72.22;99035.19;5051372;28;20036;-44
2022/08/23 02:06:05;;;;;;;14.10;9.80;;;;;;;23.52;72.35;99035.47;5051538;28;20060;-43
2022/08/23 02:11:19;;;;;;;11.98;8.90;;;;;;;23.37;72.80;99033.91;5051554;28;20047;-44
2022/08/23 02:13:44;;;;;;;11.65;9.10;;;;;;;23.68;70.90;99032.41;5051251;28;20025;-43
2022/08/23 02:16:11;;;;;;;12.10;9.32;;;;;;;23.40;73.26;99040.66;5051233;28;20041;-42
2022/08/23 02:18:37;;;;;;;11.57;9.90;;;;;;;23.46;73.10;99046.78;5051018;28;20373;-45
2022/08/23 02:21:02;;;;;;;11.70;9.38;;;;;;;23.62;72.22;99050.72;5051259;28;20069;-47
2022/08/23 02:23:28;;;;;;;11.80;9.43;;;;;;;23.66;71.96;99057.16;5050975;28;20400;-47
2022/08/23 02:25:55;;;;;;;13.80;9.60;;;;;;;23.86;71.06;99060.56;5051231;28;20032;-43
2022/08/23 02:28:22;;;;;;;11.05;9.77;;;;;;;23.27;73.94;99063.19;5050123;28;20405;-43
2022/08/23 02:30:50;;;;;;;14.35;9.90;;;;;;;23.41;73.85;99067.47;5051033;28;20036;-43
2022/08/23 02:33:16;;;;;;;11.20;9.95;;;;;;;23.43;73.87;99067.16;5051201;28;20021;-43
2022/08/23 02:35:42;;;;;;;12.27;9.93;;;;;;;23.66;72.52;99078.88;5051072;28;20020;-44
2022/08/23 02:38:11;;;;;;;13.38;10.38;;;;;;;24.03;70.68;99084.31;5050702;28;20021;-44
2022/08/23 02:40:38;;;;;;;13.07;9.73;;;;;;;23.57;73.02;99081.53;5050907;28;20381;-44
2022/08/23 02:43:05;;;;;;;13.68;10.40;;;;;;;23.53;73.74;99083.25;5050980;28;20039;-44
2022/08/23 02:45:31;;;;;;;13.98;9.98;;;;;;;23.45;73.89;99083.97;5050673;28;20025;-43
2022/08/23 02:47:57;;;;;;;15.02;10.02;;;;;;;23.54;72.89;99084.06;5050441;28;20396;-47
2022/08/23 02:50:22;;;;;;;11.00;9.90;;;;;;;23.91;71.34;99082.97;5050511;28;20024;-44
2022/08/23 02:52:48;;;;;;;12.68;9.65;;;;;;;23.49;73.78;99081.44;5050610;28;20514;-44
2022/08/23 02:55:14;;;;;;;15.00;10.10;;;;;;;23.37;74.19;99087.41;5050559;28;20032;-46
2022/08/23 02:57:39;;;;;;;11.38;9.80;;;;;;;23.40;74.37;99079.47;5069575;28;20040;-44
2022/08/23 03:00:08;;;;;;;13.07;9.45;;;;;;;23.40;73.83;99084.88;5070135;28;20376;-47
2022/08/23 03:02:35;;;;;;;11.95;8.90;;;;;;;23.36;73.39;99077.63;5052374;28;20025;-44
2022/08/23 03:05:01;;;;;;;13.43;9.20;;;;;;;23.10;74.77;99066.53;5049212;28;20568;-44
2022/08/23 03:07:26;;;;;;;10.02;9.02;;;;;;;23.20;74.46;99074.44;5050125;28;20108;-46
2022/08/23 03:09:52;;;;;;;10.15;8.90;;;;;;;23.28;73.96;99075.66;5050289;28;20025;-44
2022/08/23 03:12:17;;;;;;;9.68;8.02;;;;;;;23.27;73.57;99074.84;5049968;28;20029;-44
2022/08/23 03:14:42;;;;;;;10.85;8.00;;;;;;;23.49;72.20;99076.00;5050234;28;20068;-44
2022/08/23 03:17:08;;;;;;;10.00;8.35;;;;;;;23.85;70.71;99089.59;5050182;28;20127;-45
2022/08/23 03:19:34;;;;;;;10.82;7.75;;;;;;;23.40;72.23;99089.53;5050236;28;20159;-44
2022/08/23 03:22:00;;;;;;;10.18;7.82;;;;;;;23.31;72.69;99084.00;5050131;28;20111;-44
2022/08/23 03:24:25;;;;;;;11.52;7.60;;;;;;;23.40;72.48;99084.88;5050219;28;20069;-44
2022/08/23 03:26:50;;;;;;;10.63;7.95;;;;;;;23.43;72.56;99097.03;5049662;28;20029;-44
2022/08/23 03:29:16;;;;;;;10.73;8.40;;;;;;;23.56;71.37;99090.78;5050299;28;20035;-45
2022/08/23 03:31:42;;;;;;;13.10;8.95;;;;;;;23.91;70.27;99091.13;5049911;28;20021;-47
2022/08/23 03:34:07;;;;;;;12.23;9.35;;;;;;;23.46;72.90;99099.16;5049935;28;20020;-46
2022/08/23 03:36:33;;;;;;;11.07;8.98;;;;;;;23.37;73.51;99096.34;5049984;28;20032;-44
2022/08/23 03:38:59;;;;;;;12.15;9.07;;;;;;;23.52;73.09;99094.41;5050362;28;20037;-43
2022/08/23 03:41:25;;;;;;;23.42;18.33;;;;;;;23.54;72.84;99089.47;5050368;28;20021;-46
2022/08/23 03:43:51;;;;;;;14.93;11.90;;;;;;;23.79;70.98;99071.84;5049737;28;20025;-43
2022/08/23 03:46:23;;;;;;;13.80;10.13;;;;;;;23.67;71.75;99087.84;5049648;28;20028;-43
2022/08/23 03:48:55;;;;;;;9.57;8.18;;;;;;;23.17;73.53;99089.44;5049752;28;20072;-43
2022/08/23 03:51:22;;;;;;;9.73;8.18;;;;;;;23.17;73.79;99088.63;5050176;28;20479;-43
2022/08/23 03:53:48;;;;;;;8.40;7.22;;;;;;;23.23;72.95;99096.38;5049405;28;20028;-43
2022/08/23 03:56:35;;;;;;;10.52;7.22;;;;;;;23.28;72.74;99092.72;5056779;28;20040;-44
2022/08/23 03:59:06;;;;;;;8.82;7.03;;;;;;;23.63;70.94;99087.66;5069173;28;20107;-48
2022/08/23 04:01:32;;;;;;;9.60;7.68;;;;;;;23.54;71.25;99084.84;5059675;28;20104;-45
2022/08/23 04:03:58;;;;;;;11.35;7.35;;;;;;;23.26;72.71;99089.50;5049779;28;20104;-44
2022/08/23 04:06:26;;;;;;;9.95;7.70;;;;;;;23.43;72.27;99095.13;5049937;28;20056;-43
2022/08/23 04:08:53;;;;;;;12.65;8.32;;;;;;;23.55;71.92;99094.63;5049376;28;20040;-44
2022/08/23 04:11:19;;;;;;;10.07;7.93;;;;;;;23.67;71.33;99099.50;5049379;28;20063;-43
2022/08/23 04:13:45;;;;;;;17.15;8.00;;;;;;;23.70;70.92;99098.09;5049815;28;20068;-44
2022/08/23 04:16:10;;;;;;;11.93;8.38;;;;;;;23.75;70.83;99106.91;5050453;28;20084;-44
2022/08/23 04:18:36;;;;;;;14.60;10.00;;;;;;;23.94;69.69;99103.28;5053477;28;20025;-44
2022/08/23 04:21:08;;;;;;;11.38;8.65;;;;;;;23.56;71.97;99111.69;5053374;28;20025;-44
2022/08/23 04:23:34;;;;;;;11.50;8.45;;;;;;;23.56;72.34;99112.50;5053322;28;20107;-45
2022/08/23 04:25:59;;;;;;;10.82;7.72;;;;;;;23.80;71.13;99111.47;5048734;28;20068;-45
2022/08/23 04:28:25;;;;;;;14.48;8.05;;;;;;;23.93;70.75;99107.09;5048194;28;20031;-45
2022/08/23 04:30:50;;;;;;;13.13;8.68;;;;;;;24.21;68.24;99102.34;5045862;28;20531;-43
2022/08/23 04:33:17;;;;;;;11.35;8.35;;;;;;;24.02;69.93;99105.25;5033225;28;20033;-44
2022/08/23 04:35:42;;;;;;;13.38;8.13;;;;;;;23.98;70.15;99109.69;5035287;28;20048;-44
2022/08/23 04:38:09;;;;;;;9.52;7.32;;;;;;;23.78;70.35;99092.78;5055049;28;20107;-44
2022/08/23 04:43:18;;;;;;;11.52;6.43;;;;;;;24.16;68.00;99107.91;5033604;28;20435;-46
2022/08/23 04:45:44;;;;;;;15.73;6.68;;;;;;;24.70;65.99;99114.19;5037001;28;20037;-44
2022/08/23 04:48:09;;;;;;;12.10;6.22;;;;;;;24.08;67.72;99114.09;5052293;28;20488;-44
2022/08/23 04:50:35;;;;;;;14.70;7.72;;;;;;;24.12;67.39;99117.78;5052751;28;20086;-43
2022/08/23 04:53:02;;;;;;;11.52;7.07;;;;;;;24.14;67.80;99110.13;5052432;28;20029;-44
2022/08/23 04:55:27;;;;;;;11.85;5.90;;;;;;;24.24;66.39;99118.06;5050645;28;20056;-43
2022/08/23 04:57:53;;;;;;;9.43;5.50;;;;;;;24.33;66.05;99097.16;5051288;28;20056;-44
2022/08/23 05:00:20;;;;;;;11.55;5.55;;;;;;;24.94;63.54;99104.84;5051890;28;20025;-45
2022/08/23 05:02:45;;;;;;;12.15;5.43;;;;;;;24.72;65.47;99108.44;5051713;28;20502;-43
2022/08/23 05:05:11;;;;;;;8.80;5.43;;;;;;;24.67;64.51;99103.13;5052242;28;20068;-43
2022/08/23 05:07:38;;;;;;;9.10;5.82;;;;;;;24.92;64.11;99110.63;5051289;28;20117;-45
2022/08/23 05:10:05;;;;;;;8.55;5.50;;;;;;;25.24;62.57;99111.38;5052339;28;20025;-44
2022/08/23 05:12:31;;;;;;;11.00;5.78;;;;;;;25.80;60.78;99119.81;5050542;28;20033;-44
2022/08/23 05:14:56;;;;;;;7.57;6.55;;;;;;;26.12;59.98;99115.00;5051819;28;20106;-43
2022/08/23 05:17:21;;;;;;;6.63;5.13;;;;;;;26.47;59.13;99113.03;5051340;28;20107;-45
2022/08/23 05:19:47;;;;;;;6.65;4.65;;;;;;;26.66;58.06;99117.34;5051191;28;20057;-45
2022/08/23 05:22:13;;;;;;;6.35;4.43;;;;;;;27.24;56.56;99109.53;5051198;28;20033;-43
2022/08/23 05:24:38;;;;;;;7.55;4.60;;;;;;;27.59;55.08;99109.38;5051306;28;20078;-44
2022/08/23 05:27:04;;;;;;;8.13;4.78;;;;;;;28.13;53.91;99119.56;5051145;28;20025;-43
2022/08/23 05:29:29;;;;;;;6.22;4.80;;;;;;;28.29;53.01;99112.31;5050678;28;20029;-44
2022/08/23 05:31:55;;;;;;;6.18;4.88;;;;;;;28.48;52.26;99109.06;5051059;28;20021;-42
2022/08/23 05:34:21;;;;;;;8.05;4.55;;;;;;;28.73;52.06;99095.47;5051501;28;20056;-42
2022/08/23 05:36:47;;;;;;;9.82;5.15;;;;;;;28.95;50.40;99096.97;5051258;28;20465;-45
2022/08/23 05:39:14;;;;;;;9.60;4.32;;;;;;;29.22;50.96;99096.28;5051258;28;20416;-42
2022/08/23 05:41:40;;;;;;;8.55;4.72;;;;;;;29.81;48.92;99103.16;5050925;28;20454;-43
2022/08/23 05:44:06;;;;;;;6.30;4.40;;;;;;;29.71;49.16;99098.16;5051221;28;20067;-44
2022/08/23 05:46:33;;;;;;;5.60;4.22;;;;;;;30.07;47.82;99096.47;5051025;28;20028;-45
2022/08/23 05:48:58;;;;;;;7.15;4.70;;;;;;;30.21;47.28;99094.13;5051052;28;20113;-45
2022/08/23 05:51:28;;;;;;;6.80;4.72;;;;;;;30.39;46.95;99100.09;5050692;28;20159;-43
2022/08/23 05:53:58;;;;;;;7.75;5.15;;;;;;;30.85;45.84;99096.16;5051483;28;20111;-44
2022/08/23 05:56:30;;;;;;;7.30;5.07;;;;;;;30.53;46.51;99096.91;5048393;28;20213;-44
2022/08/23 05:58:59;;;;;;;6.57;5.07;;;;;;;30.45;46.59;99088.88;5051516;28;20033;-43
2022/08/23 06:01:27;;;;;;;6.25;5.03;;;;;;;30.76;46.13;99086.13;5049896;28;20101;-43
2022/08/23 06:03:53;;;;;;;13.82;5.45;;;;;;;31.23;45.19;99095.50;5049169;28;20585;-43
2022/08/23 06:06:19;;;;;;;7.97;5.22;;;;;;;31.66;44.23;99099.25;5047381;28;20123;-46
2022/08/23 06:08:46;;;;;;;8.73;5.40;;;;;;;31.26;45.39;99103.00;5047183;28;20024;-45
2022/08/23 06:11:15;;;;;;;6.80;4.93;;;;;;;31.36;45.12;99105.22;5050912;28;20159;-44
2022/08/23 06:13:46;;;;;;;6.55;4.82;;;;;;;32.09;43.42;99110.31;5051025;28;20036;-45
2022/08/23 06:16:13;;;;;;;9.93;4.90;;;;;;;32.36;42.91;99110.44;5050392;28;20059;-46
2022/08/23 06:18:38;;;;;;;7.55;5.00;;;;;;;31.87;43.63;99114.56;5050590;28;20053;-41
2022/08/23 06:21:08;;;;;;;8.68;5.05;;;;;;;31.95;43.28;99114.34;5050693;28;20130;-43
2022/08/23 06:23:35;;;;;;;7.90;4.90;;;;;;;32.41;42.13;99108.19;5049937;28;20064;-43
2022/08/23 06:26:09;;;;;;;8.25;5.10;;;;;;;32.82;40.92;99108.50;5050402;28;20056;-45
2022/08/23 06:28:35;;;;;;;6.82;4.93;;;;;;;31.81;43.24;99119.56;5049938;28;20178;-44
2022/08/23 06:31:00;;;;;;;10.27;5.50;;;;;;;31.30;43.92;99120.41;5048353;28;20025;-44
2022/08/23 06:33:26;;;;;;;8.63;5.15;;;;;;;31.08;45.25;99119.09;5048330;28;20055;-44
2022/08/23 06:36:05;;;;;;;6.10;5.10;;;;;;;31.02;44.92;99130.72;5048867;28;20116;-43
2022/08/23 06:38:31;;;;;;;5.78;4.68;;;;;;;31.58;43.39;99126.94;5048899;28;20364;-45
2022/08/23 06:41:03;;;;;;;7.60;5.50;;;;;;;30.87;45.98;99140.53;5048796;28;20527;-44
2022/08/23 06:43:29;;;;;;;9.43;5.43;;;;;;;30.68;45.95;99143.97;5049297;28;20033;-43
2022/08/23 06:45:54;;;;;;;9.63;5.10;;;;;;;30.53;46.68;99138.09;5049413;28;20025;-44
2022/08/23 06:48:20;;;;;;;8.73;5.40;;;;;;;30.74;46.39;99137.84;5049042;28;20475;-43
2022/08/23 06:50:45;;;;;;;9.02;5.25;;;;;;;31.55;44.74;99137.47;5049445;28;20028;-45
2022/08/23 06:53:11;;;;;;;10.18;5.93;;;;;;;31.14;45.01;99138.84;5049564;28;20393;-42
2022/08/23 06:55:37;;;;;;;7.25;4.68;;;;;;;30.85;45.90;99151.88;5049862;28;20029;-43
2022/08/23 06:58:03;;;;;;;5.50;4.78;;;;;;;30.66;45.73;99152.56;5049748;28;20024;-42
2022/08/23 07:00:28;;;;;;;10.73;5.43;;;;;;;30.53;46.38;99154.56;5049582;28;20475;-43
2022/08/23 07:02:54;;;;;;;8.45;5.20;;;;;;;30.85;46.39;99153.81;5050110;28;20040;-46
2022/08/23 07:05:20;;;;;;;9.45;6.05;;;;;;;30.72;47.02;99161.34;5049830;28;20461;-44
2022/08/23 07:07:45;;;;;;;10.35;6.07;;;;;;;30.21;48.49;99159.16;5049462;28;20029;-44
2022/08/23 07:10:11;;;;;;;7.97;6.03;;;;;;;29.85;49.31;99160.84;5050005;28;20029;-43
2022/08/23 07:12:40;;;;;;;7.68;5.80;;;;;;;29.84;49.97;99164.75;5049556;28;20033;-43
2022/08/23 07:15:07;;;;;;;13.60;6.25;;;;;;;29.99;49.69;99157.75;5048050;28;20048;-44
2022/08/23 07:17:32;;;;;;;7.38;5.85;;;;;;;30.60;47.62;99171.22;5049310;28;20032;-43
2022/08/23 07:19:59;;;;;;;7.05;5.65;;;;;;;29.79;49.58;99173.22;5049783;28;20045;-46
2022/08/23 07:22:24;;;;;;;6.85;5.43;;;;;;;29.85;49.66;99174.56;5049629;28;20389;-43
2022/08/23 07:24:50;;;;;;;6.18;5.30;;;;;;;30.17;49.61;99178.25;5049495;28;20597;-43
2022/08/23 07:27:15;;;;;;;7.53;5.63;;;;;;;30.29;49.04;99182.91;5049127;28;20025;-43
2022/08/23 07:29:41;;;;;;;8.90;5.50;;;;;;;30.49;48.44;99186.63;5049467;28;20188;-44
2022/08/23 07:32:07;;;;;;;9.13;5.88;;;;;;;30.69;47.48;99189.47;5048874;28;20453;-37
2022/08/23 07:34:33;;;;;;;7.25;5.45;;;;;;;30.56;47.48;99186.81;5049820;28;20092;-37
2022/08/23 07:36:59;;;;;;;6.90;5.90;;;;;;;30.11;48.99;99193.34;5049864;28;20017;-37
2022/08/23 07:39:25;;;;;;;7.72;5.82;;;;;;;29.90;49.51;99177.06;5049477;28;20067;-36
2022/08/23 07:41:51;;;;;;;9.32;5.65;;;;;;;30.00;49.06;99179.31;5049795;28;20096;-35
2022/08/23 07:44:17;;;;;;;10.38;6.07;;;;;;;30.20;49.01;99185.00;5047349;28;20052;-37
2022/08/23 07:46:44;;;;;;;7.15;5.97;;;;;;;30.95;47.18;99184.31;5047286;28;20452;-37
2022/08/23 07:49:11;;;;;;;7.03;5.72;;;;;;;30.75;47.04;99177.91;5047731;28;20387;-38
2022/08/23 07:51:38;;;;;;;6.72;6.03;;;;;;;30.29;48.18;99182.09;5049454;28;20017;-38
2022/08/23 07:54:07;;;;;;;9.52;5.80;;;;;;;30.28;47.75;99184.03;5051408;28;20024;-38
2022/08/23 07:56:33;;;;;;;;;;;;;;;30.47;47.75;99180.69;5061922;28;20483;-38
2022/08/23 07:59:00;;;;;;;9.45;5.88;;;;;;;30.63;47.52;99183.44;5072151;28;19999;-37
2022/08/23 08:01:27;;;;;;;7.18;5.93;;;;;;;31.64;45.53;99172.22;5063166;28;20090;-38
2022/08/23 08:03:55;;;;;;;6.40;5.72;;;;;;;31.51;44.64;99185.28;5052065;28;20044;-37
2022/08/23 08:06:25;;;;;;;15.60;9.80;;;;;;;31.36;45.52;99187.69;5053049;28;20100;-37
2022/08/23 08:08:51;;;;;;;30.42;16.73;;;;;;;31.49;45.53;99188.41;5053061;28;20172;-37
2022/08/23 08:11:20;;;;;;;9.50;7.65;;;;;;;31.72;44.00;99191.28;5052558;28;20529;-37
2022/08/23 08:13:46;;;;;;;;;;;;;;;31.96;43.25;99190.22;5053450;28;20080;-37
2022/08/23 08:16:29;;;;;;;8.25;6.85;;;;;;;31.61;44.19;99189.47;5052630;28;19921;-36
2022/08/23 08:18:56;;;;;;;25.75;12.52;;;;;;;31.50;44.47;99189.19;5053004;28;20065;-37
2022/08/23 08:21:22;;;;;;;15.13;10.23;;;;;;;31.11;45.42;99189.84;5052590;28;20252;-37
2022/08/23 08:23:48;;;;;;;7.60;6.38;;;;;;;30.94;44.88;99192.94;5053205;28;20462;-37
2022/08/23 08:26:14;;;;;;;18.40;12.27;;;;;;;31.20;44.49;99188.84;5052923;28;20111;-37
2022/08/23 08:28:40;;;;;;;19.00;10.88;;;;;;;31.22;45.21;99181.81;5052791;28;20471;-37
2022/08/23 08:31:06;;;;;;;65.82;32.97;;;;;;;32.07;44.01;99184.97;5052257;28;20029;-37
2022/08/23 08:33:31;;;;;;;15.27;8.45;;;;;;;31.92;44.51;99177.56;5052123;28;20433;-37
2022/08/23 08:35:57;;;;;;;13.65;8.20;;;;;;;31.59;45.06;99158.75;5052480;28;20154;-36
2022/08/23 08:38:23;;;;;;;15.63;9.70;;;;;;;31.65;44.24;99184.81;5052357;28;20017;-36
2022/08/23 08:41:02;;;;;;;12.45;8.07;;;;;;;31.90;43.93;99180.66;5052405;28;20044;-37
2022/08/23 08:43:30;;;;;;;8.60;6.28;;;;;;;32.11;42.35;99180.34;5052572;28;20028;-37
2022/08/23 08:46:12;;;;;;;10.85;7.05;;;;;;;32.23;41.58;99176.63;5052488;28;20083;-37
2022/08/23 08:48:48;;;;;;;6.93;5.90;;;;;;;32.07;41.70;99173.97;5052029;28;20512;-43
2022/08/23 08:51:30;;;;;;;12.10;7.90;;;;;;;32.16;42.60;99182.03;5052039;28;20033;-46
2022/08/23 08:53:58;;;;;;;9.85;7.18;;;;;;;32.07;41.98;99182.22;5051455;28;20020;-44
2022/08/23 08:56:29;;;;;;;21.10;10.88;;;;;;;32.29;41.61;99174.38;5060945;28;20101;-43
2022/08/23 08:58:58;;;;;;;27.25;12.90;;;;;;;32.56;40.67;99171.75;5072004;28;20465;-43
2022/08/23 09:01:25;;;;;;;26.42;12.50;;;;;;;33.25;39.83;99172.63;5072023;28;20444;-43
2022/08/23 09:03:52;;;;;;;19.25;9.02;;;;;;;33.61;40.15;99175.13;5070903;28;20103;-44
2022/08/23 09:06:31;;;;;;;7.80;6.45;;;;;;;33.17;41.04;99176.44;5071868;28;20028;-46
2022/08/23 09:09:18;;;;;;;11.30;7.55;;;;;;;32.92;40.86;99179.53;5072208;28;20017;-43
2022/08/23 09:12:11;;;;;;;16.00;8.15;;;;;;;32.75;40.37;99173.69;5072206;28;20033;-46
2022/08/23 09:15:22;;;;;;;8.20;7.07;;;;;;;32.55;40.77;99195.75;5071555;28;20472;-43
2022/08/23 09:17:54;;;;;;;13.52;7.85;;;;;;;33.35;39.39;99189.69;5039162;28;20549;-43
2022/08/23 09:20:22;;;;;;;7.32;6.35;;;;;;;32.89;40.39;99193.25;5071599;28;20090;-44
2022/08/23 09:22:53;;;;;;;8.27;6.18;;;;;;;32.63;41.61;99199.47;5071518;28;20166;-44
2022/08/23 09:25:19;;;;;;;11.65;6.80;;;;;;;32.54;41.80;99191.41;5070949;28;20187;-44
2022/08/23 09:27:45;;;;;;;9.95;6.45;;;;;;;32.52;41.63;99193.75;5071097;28;20141;-46
2022/08/23 09:30:13;;;;;;;10.57;7.20;;;;;;;32.96;40.90;99196.13;5071150;28;20029;-44
2022/08/23 09:32:41;;;;;;;;;;;;;;;32.55;41.88;99195.75;5071592;28;20131;-44
2022/08/23 09:35:16;;;;;;;11.63;7.45;;;;;;;32.38;42.86;99188.72;5070971;28;19908;-43
2022/08/23 09:37:46;;;;;;;10.18;7.10;;;;;;;32.11;42.61;99174.84;5071095;28;20099;-43
2022/08/23 09:40:13;;;;;;;8.60;6.90;;;;;;;32.47;41.78;99174.75;5071549;28;20086;-46
2022/08/23 09:42:40;;;;;;;7.22;6.47;;;;;;;32.54;40.83;99167.41;5071033;28;20157;-47
2022/08/23 09:45:28;;;;;;;8.70;6.85;;;;;;;33.07;40.22;99163.22;5071011;28;20020;-43
2022/08/23 09:47:53;;;;;;;7.85;6.30;;;;;;;32.46;41.57;99162.13;5070974;28;20025;-44
2022/08/23 09:50:28;;;;;;;8.80;7.22;;;;;;;32.48;42.13;99157.88;5071038;28;20448;-44
2022/08/23 09:53:03;;;;;;;8.68;6.93;;;;;;;32.69;42.46;99157.50;5066542;28;20029;-46
2022/08/23 09:55:31;;;;;;;9.82;6.55;;;;;;;32.62;41.55;99154.59;5052081;28;20021;-43
2022/08/23 09:57:59;;;;;;;9.55;6.50;;;;;;;32.42;41.41;99158.53;5070569;28;20035;-42
2022/08/23 10:00:34;;;;;;;7.40;6.65;;;;;;;33.06;39.76;99154.16;5071123;28;20037;-42
2022/08/23 10:03:18;;;;;;;8.52;6.57;;;;;;;32.82;40.72;99151.78;5070693;28;20048;-46
2022/08/23 10:05:51;;;;;;;8.88;6.32;;;;;;;32.72;41.01;99162.25;5069559;28;20069;-43
2022/08/23 10:08:32;;;;;;;7.57;6.45;;;;;;;32.89;40.86;99162.94;5070514;28;20549;-42
2022/08/23 10:11:19;;;;;;;7.68;6.55;;;;;;;32.90;41.06;99159.81;5070558;28;20024;-43
2022/08/23 10:13:44;;;;;;;9.27;6.70;;;;;;;33.58;40.00;99171.13;5062715;28;20028;-44
2022/08/23 10:16:19;;;;;;;9.50;6.60;;;;;;;33.37;40.13;99160.56;5049864;28;20044;-46
2022/08/23 10:18:55;;;;;;;10.60;6.20;;;;;;;32.90;40.25;99161.75;5050866;28;20025;-44
2022/08/23 10:21:32;;;;;;;8.98;6.82;;;;;;;33.23;39.94;99154.88;5051012;28;20029;-43
2022/08/23 10:24:03;;;;;;;6.90;6.22;;;;;;;33.77;39.53;99150.91;5051032;28;20461;-47
2022/08/23 10:26:32;;;;;;;10.27;6.53;;;;;;;34.27;38.17;99148.81;5050969;28;20493;-43
2022/08/23 10:31:56;;;;;;;8.27;6.40;;;;;;;33.15;39.72;99144.88;5050838;28;20035;-43
2022/08/23 10:34:24;;;;;;;10.43;6.68;;;;;;;32.95;39.74;99147.69;5050742;28;20111;-44
2022/08/23 10:37:07;;;;;;;6.82;6.15;;;;;;;33.72;38.64;99142.19;5050850;28;20033;-46
2022/08/23 10:39:44;;;;;;;8.60;6.30;;;;;;;33.63;38.09;99145.19;5050460;28;20556;-47
2022/08/23 10:42:44;;;;;;;7.00;6.00;;;;;;;33.67;38.43;99143.31;5050608;28;20029;-43
2022/08/23 10:45:16;;;;;;;6.47;5.88;;;;;;;33.84;38.76;99142.75;5029362;28;20125;-36
2022/08/23 10:48:26;;;;;;;7.38;5.70;;;;;;;35.07;36.98;99141.28;5047191;28;20090;-37
2022/08/23 10:50:56;;;;;;;10.60;6.53;;;;;;;34.48;38.17;99144.66;5048217;28;20047;-37
2022/08/23 10:53:33;;;;;;;8.60;6.50;;;;;;;34.28;38.27;99144.09;5047376;28;20053;-37
2022/08/23 10:56:02;;;;;;;7.07;6.22;;;;;;;34.45;37.53;99151.75;5050210;28;20059;-36
2022/08/23 10:58:42;;;;;;;;;;;;;;;34.68;37.31;99133.47;5050595;28;20397;-36
2022/08/23 11:01:11;;;;;;;7.28;6.35;;;;;;;35.44;35.52;99141.97;5050284;28;20015;-37
2022/08/23 11:03:51;;;;;;;9.40;6.47;;;;;;;34.85;36.36;99146.63;5050192;28;20040;-37
2022/08/23 11:06:34;;;;;;;9.65;6.35;;;;;;;34.39;36.88;99147.75;5050025;28;20029;-37
2022/08/23 11:09:02;;;;;;;8.02;6.35;;;;;;;34.35;37.62;99133.13;5049983;28;20025;-36
2022/08/23 11:11:39;;;;;;;6.90;6.20;;;;;;;34.16;37.72;99134.09;5049377;28;20025;-38
2022/08/23 11:14:09;;;;;;;7.30;6.60;;;;;;;34.42;36.95;99135.16;5049760;28;20060;-37
2022/08/23 11:16:39;;;;;;;6.97;6.38;;;;;;;34.49;36.12;99126.94;5049483;28;20110;-37
2022/08/23 11:19:11;;;;;;;6.53;5.93;;;;;;;33.93;36.71;99119.59;5049751;28;20040;-36
2022/08/23 11:21:38;;;;;;;7.30;5.95;;;;;;;33.44;37.98;99119.34;5048839;28;20432;-37
2022/08/23 11:24:04;;;;;;;10.95;6.68;;;;;;;33.55;38.04;99121.44;5049344;28;20021;-37
2022/08/23 11:26:32;;;;;;;7.18;6.35;;;;;;;34.12;36.69;99127.72;5048202;28;20031;-37
2022/08/23 11:29:09;;;;;;;7.68;6.55;;;;;;;34.51;37.18;99130.13;5049859;28;20167;-37
2022/08/23 11:32:05;;;;;;;8.13;6.95;;;;;;;34.22;36.47;99121.53;5049543;28;20523;-38
2022/08/23 11:34:48;;;;;;;9.02;6.95;;;;;;;33.93;37.33;99119.59;5047716;28;20420;-37
2022/08/23 11:37:19;;;;;;;8.13;7.30;;;;;;;33.84;37.40;99117.91;5049283;28;20072;-37
2022/08/23 11:39:57;;;;;;;8.25;7.35;;;;;;;34.21;36.35;99111.66;5049289;28;20039;-37
2022/08/23 11:42:49;;;;;;;10.60;6.60;;;;;;;34.22;36.51;99115.22;5048739;28;20057;-37
2022/08/23 11:45:26;;;;;;;7.78;7.00;;;;;;;33.82;37.07;99108.44;5049101;28;20028;-37
2022/08/23 11:48:18;;;;;;;7.78;6.97;;;;;;;34.07;37.20;99109.50;5048739;28;20032;-37
2022/08/23 11:51:00;;;;;;;7.30;6.60;;;;;;;34.40;35.60;99107.13;5033064;28;20082;-38
2022/08/23 11:53:48;;;;;;;9.85;7.30;;;;;;;34.96;35.20;99092.25;5048834;28;20021;-38